createdAt,value
2022-09-10T00:01:55.670Z,24.88
2022-09-10T00:05:10.043Z,27.10
2022-09-10T00:08:35.134Z,27.85
2022-09-10T00:11:47.779Z,29.33
2022-09-10T00:15:09.721Z,26.70
2022-09-10T00:18:25.351Z,30.08
2022-09-10T00:21:37.403Z,29.38
2022-09-10T00:24:49.032Z,30.20
2022-09-10T00:28:08.949Z,33.25
2022-09-10T00:31:30.132Z,31.28
2022-09-10T00:34:41.903Z,33.05
2022-09-10T00:37:55.461Z,31.25
2022-09-10T00:41:28.992Z,27.78
2022-09-10T00:45:21.357Z,26.95
2022-09-10T00:48:37.050Z,32.48
2022-09-10T00:51:58.726Z,31.23
2022-09-10T00:55:12.523Z,30.20
2022-09-10T01:02:10.073Z,35.23
2022-09-10T01:05:23.546Z,30.53
2022-09-10T01:08:35.288Z,29.28
2022-09-10T01:12:12.506Z,31.95
2022-09-10T01:15:33.035Z,30.05
2022-09-10T01:18:58.121Z,32.90
2022-09-10T01:22:18.902Z,29.75
2022-09-10T01:25:49.751Z,31.25
2022-09-10T01:32:37.212Z,33.38
2022-09-10T01:35:54.208Z,32.45
2022-09-10T01:39:06.842Z,30.37
2022-09-10T01:42:18.694Z,31.45
2022-09-10T01:45:30.737Z,29.63
2022-09-10T01:49:07.783Z,30.65
2022-09-10T01:52:28.662Z,26.73
2022-09-10T01:56:04.397Z,31.70
2022-09-10T01:59:27.612Z,30.15
2022-09-10T02:02:46.172Z,29.63
2022-09-10T02:06:02.822Z,35.35
2022-09-10T02:09:18.834Z,31.45
2022-09-10T02:16:36.530Z,110.33
2022-09-10T02:19:55.762Z,36.10
2022-09-10T02:23:23.844Z,33.78
2022-09-10T02:26:37.039Z,34.43
2022-09-10T02:29:49.885Z,31.98
2022-09-10T02:33:13.589Z,31.18
2022-09-10T02:36:35.936Z,39.10
2022-09-10T02:39:58.974Z,36.28
2022-09-10T02:43:12.605Z,39.03
2022-09-10T02:46:24.529Z,37.65
2022-09-10T02:49:47.775Z,41.18
2022-09-10T02:53:01.018Z,44.95
2022-09-10T02:56:15.457Z,44.30
2022-09-10T02:59:29.140Z,45.80
2022-09-10T03:02:42.303Z,45.80
2022-09-10T03:06:07.793Z,44.43
2022-09-10T03:09:29.008Z,44.98
2022-09-10T03:12:41.088Z,44.65
2022-09-10T03:15:52.820Z,44.23
2022-09-10T03:19:04.424Z,51.20
2022-09-10T03:22:27.967Z,43.98
2022-09-10T03:25:40.567Z,41.90
2022-09-10T03:28:53.453Z,50.58
2022-09-10T03:32:06.033Z,47.85
2022-09-10T03:35:19.655Z,43.50
2022-09-10T03:38:32.667Z,55.53
2022-09-10T03:41:45.365Z,44.03
2022-09-10T03:44:58.734Z,45.38
2022-09-10T03:48:11.169Z,46.43
2022-09-10T03:51:23.242Z,52.45
2022-09-10T03:54:35.417Z,47.83
2022-09-10T03:57:47.115Z,49.18
2022-09-10T04:00:59.620Z,48.53
2022-09-10T04:04:12.724Z,46.03
2022-09-10T04:07:24.452Z,48.53
2022-09-10T04:10:36.837Z,44.35
2022-09-10T04:13:49.108Z,46.28
2022-09-10T04:17:01.471Z,45.95
2022-09-10T04:20:15.905Z,47.13
2022-09-10T04:23:29.489Z,47.55
2022-09-10T04:26:41.436Z,46.45
2022-09-10T04:29:55.280Z,44.73
2022-09-10T04:33:07.059Z,44.00
2022-09-10T04:36:20.357Z,43.78
2022-09-10T04:39:32.677Z,43.40
2022-09-10T04:42:45.410Z,37.00
2022-09-10T04:45:57.918Z,38.48
2022-09-10T04:49:11.176Z,43.33
2022-09-10T04:52:22.990Z,55.05
2022-09-10T04:55:38.119Z,47.65
2022-09-10T04:58:50.349Z,38.93
2022-09-10T05:02:03.740Z,35.88
2022-09-10T05:05:16.442Z,35.08
2022-09-10T05:08:28.558Z,33.13
2022-09-10T05:11:42.773Z,43.03
2022-09-10T05:14:56.438Z,40.88
2022-09-10T05:18:08.258Z,29.55
2022-09-10T05:21:22.770Z,36.03
2022-09-10T05:24:36.227Z,152.18
2022-09-10T05:27:51.399Z,55.68
2022-09-10T05:31:06.005Z,36.43
2022-09-10T05:34:18.497Z,39.95
2022-09-10T05:37:30.114Z,35.45
2022-09-10T05:40:41.810Z,36.93
2022-09-10T05:43:53.703Z,35.98
2022-09-10T05:47:06.607Z,33.18
2022-09-10T05:50:19.481Z,41.03
2022-09-10T05:53:31.371Z,37.55
2022-09-10T05:56:43.653Z,36.08
2022-09-10T05:59:56.720Z,40.15
2022-09-10T06:03:09.511Z,34.35
2022-09-10T06:09:40.778Z,34.23
2022-09-10T06:13:00.708Z,50.95
2022-09-10T06:16:13.083Z,41.63
2022-09-10T06:19:26.068Z,36.35
2022-09-10T06:22:39.993Z,35.68
2022-09-10T06:25:53.219Z,33.83
2022-09-10T06:29:05.237Z,33.78
2022-09-10T06:32:18.701Z,70.30
2022-09-10T06:35:33.787Z,37.58
2022-09-10T06:38:45.985Z,38.50
2022-09-10T06:41:58.269Z,35.63
2022-09-10T06:45:28.319Z,34.50
2022-09-10T06:48:50.380Z,35.88
2022-09-10T06:52:04.572Z,32.05
2022-09-10T06:55:17.137Z,31.60
2022-09-10T07:13:20.909Z,39.45
2022-09-10T07:16:47.015Z,36.10
2022-09-10T07:19:59.033Z,35.70
2022-09-10T07:23:13.079Z,32.70
2022-09-10T07:26:26.795Z,35.25
2022-09-10T07:29:41.586Z,40.73
2022-09-10T07:44:29.617Z,38.38
2022-09-10T07:47:43.283Z,40.07
2022-09-10T07:54:43.972Z,41.00
2022-09-10T07:57:59.976Z,40.13
2022-09-10T08:01:16.647Z,41.05
2022-09-10T08:04:31.514Z,63.58
2022-09-10T08:07:45.238Z,105.20
2022-09-10T08:22:04.117Z,37.40
2022-09-10T08:25:28.089Z,37.38
2022-09-10T08:33:12.034Z,59.10
2022-09-10T09:19:41.123Z,23.98
2022-09-10T09:29:26.418Z,16.83
2022-09-10T09:32:44.658Z,17.18
2022-09-10T09:36:16.589Z,14.68
2022-09-10T09:44:31.119Z,22.80
2022-09-10T11:23:45.304Z,23.10
2022-09-10T11:27:05.813Z,8.13
2022-09-10T11:30:21.713Z,4.15
2022-09-10T11:48:01.991Z,7.15
2022-09-10T11:51:22.395Z,6.70
2022-09-10T11:59:18.185Z,8.50
2022-09-10T12:03:09.127Z,8.03
2022-09-10T12:11:36.891Z,17.18
2022-09-10T13:22:22.030Z,2.60
2022-09-10T13:25:48.310Z,3.10
2022-09-10T13:29:32.856Z,4.55
2022-09-10T13:32:53.745Z,4.15
2022-09-10T17:04:32.513Z,5.65
2022-09-10T17:07:44.709Z,10.10
2022-09-10T17:10:57.265Z,10.33
2022-09-10T17:14:12.467Z,12.55
2022-09-10T17:17:24.321Z,8.68
2022-09-10T17:20:37.941Z,7.28
2022-09-10T17:23:49.867Z,11.88
2022-09-10T17:27:11.565Z,7.10
2022-09-10T17:30:24.058Z,9.73
2022-09-10T17:33:36.564Z,6.48
2022-09-10T17:36:50.866Z,31.40
2022-09-10T17:40:14.609Z,38.05
2022-09-10T17:43:27.488Z,10.08
2022-09-10T17:50:32.482Z,8.23
2022-09-10T17:53:51.690Z,9.20
2022-09-10T17:57:16.730Z,8.83
2022-09-10T18:24:44.833Z,4.53
2022-09-10T18:34:31.173Z,5.98
2022-09-10T18:37:43.111Z,8.88
2022-09-10T18:40:56.393Z,7.73
2022-09-10T18:44:11.542Z,4.70
2022-09-10T18:47:43.582Z,9.20
2022-09-10T18:50:49.101Z,5.63
2022-09-10T18:54:06.066Z,6.38
2022-09-10T18:57:17.638Z,7.08
2022-09-10T19:00:40.753Z,5.50
2022-09-10T19:03:54.566Z,5.40
2022-09-10T19:10:59.930Z,7.05
2022-09-10T19:14:18.016Z,3.50
2022-09-10T19:17:31.545Z,2.70
2022-09-10T19:20:45.296Z,4.83
2022-09-10T19:24:00.979Z,5.30
2022-09-10T19:27:12.734Z,10.53
2022-09-10T19:30:24.452Z,4.35
2022-09-10T19:33:36.300Z,4.95
2022-09-10T19:37:00.156Z,3.28
2022-09-10T19:40:14.921Z,1.98
2022-09-10T19:43:28.615Z,4.53
2022-09-10T19:46:41.495Z,3.75
2022-09-10T19:49:53.559Z,5.00
2022-09-10T19:53:05.283Z,1.98
2022-09-10T19:56:21.298Z,4.30
2022-09-10T19:59:43.918Z,2.30
2022-09-10T20:03:08.957Z,6.98
2022-09-10T20:06:25.512Z,5.33
2022-09-10T20:09:39.960Z,7.35
2022-09-10T20:13:01.970Z,3.18
2022-09-10T20:16:27.710Z,3.78
2022-09-10T20:19:41.117Z,5.85
2022-09-10T20:22:54.250Z,6.43
2022-09-10T20:26:20.012Z,4.13
2022-09-10T20:33:13.128Z,7.78
2022-09-10T20:36:38.442Z,3.48
2022-09-10T20:39:51.900Z,8.28
2022-09-10T20:43:05.009Z,7.23
2022-09-10T20:46:23.105Z,13.83
2022-09-10T20:53:29.023Z,6.18
2022-09-10T21:00:35.948Z,6.93
2022-09-10T21:07:38.570Z,8.60
2022-09-10T21:11:02.132Z,7.30
2022-09-10T21:18:08.219Z,7.13
2022-09-10T21:21:27.136Z,7.30
2022-09-10T21:24:47.214Z,10.73
2022-09-10T21:28:09.764Z,8.43
2022-09-10T21:35:02.098Z,7.20
2022-09-10T21:38:26.288Z,9.55
2022-09-10T21:41:42.693Z,6.25
2022-09-10T21:45:06.460Z,8.80
2022-09-10T21:48:18.058Z,6.88
2022-09-10T21:51:30.522Z,6.73
2022-09-10T21:54:42.164Z,5.50
2022-09-10T22:08:59.191Z,4.98
2022-09-10T22:15:53.871Z,5.13
2022-09-10T22:34:18.359Z,5.58
2022-09-10T22:56:32.332Z,7.38
2022-09-10T22:59:51.349Z,4.85
2022-09-10T23:06:55.717Z,8.75
2022-09-10T23:13:49.189Z,8.10
2022-09-10T23:17:01.441Z,6.08
2022-09-10T23:20:17.142Z,7.33
2022-09-10T23:23:36.128Z,9.40
2022-09-10T23:26:48.718Z,7.90
2022-09-10T23:30:08.157Z,5.25
2022-09-10T23:40:52.671Z,8.15
2022-09-10T23:55:44.355Z,15.28
2022-09-10T23:58:58.015Z,8.13
